createdAt,value
2016-10-21T00:00:06.210Z,0
2016-10-21T00:01:06.170Z,0
2016-10-21T00:02:05.566Z,0
2016-10-21T00:03:05.922Z,0
2016-10-21T00:04:06.637Z,0
2016-10-21T00:05:06.556Z,0
2016-10-21T00:06:06.064Z,0
2016-10-21T00:07:06.357Z,0
2016-10-21T00:08:05.356Z,0
2016-10-21T00:09:06.223Z,0
2016-10-21T00:10:05.969Z,0
2016-10-21T00:11:05.268Z,0
2016-10-21T00:12:06.375Z,0
2016-10-21T00:13:07.229Z,0
2016-10-21T00:14:06.095Z,0
2016-10-21T00:15:08.026Z,0
2016-10-21T00:16:06.976Z,0
2016-10-21T00:17:07.493Z,0
2016-10-21T00:18:06.450Z,0
2016-10-21T00:19:05.975Z,0
2016-10-21T00:20:06.391Z,0
2016-10-21T00:21:06.744Z,0
2016-10-21T00:22:06.180Z,0
2016-10-21T00:23:06.078Z,0
2016-10-21T00:24:06.459Z,0
2016-10-21T00:25:05.532Z,0
2016-10-21T00:26:05.945Z,0
2016-10-21T00:27:05.860Z,0
2016-10-21T00:28:06.579Z,0
2016-10-21T00:29:06.501Z,0
2016-10-21T00:30:06.647Z,0
2016-10-21T00:31:06.059Z,0
2016-10-21T00:32:06.107Z,0
2016-10-21T00:33:06.634Z,0
2016-10-21T00:34:06.342Z,0
2016-10-21T00:35:06.670Z,0
2016-10-21T00:36:05.818Z,0
2016-10-21T00:37:05.950Z,0
2016-10-21T00:38:05.831Z,0
2016-10-21T00:39:06.511Z,0
2016-10-21T00:40:06.324Z,0
2016-10-21T00:41:06.025Z,0
2016-10-21T00:42:07.966Z,0
2016-10-21T00:43:06.112Z,0
2016-10-21T00:44:06.908Z,0
2016-10-21T00:45:06.427Z,0
2016-10-21T00:46:06.142Z,0
2016-10-21T00:47:07.545Z,0
2016-10-21T00:48:05.736Z,0
2016-10-21T00:49:07.070Z,0
2016-10-21T00:50:07.252Z,0
2016-10-21T00:51:06.228Z,0
2016-10-21T00:52:07.014Z,0
2016-10-21T00:53:07.710Z,0
2016-10-21T00:54:06.222Z,0
2016-10-21T00:55:06.703Z,0
2016-10-21T00:56:07.031Z,0
2016-10-21T00:57:06.580Z,0
2016-10-21T00:58:06.569Z,0
2016-10-21T00:59:06.309Z,0
2016-10-21T01:00:06.707Z,0
2016-10-21T01:01:06.603Z,0
2016-10-21T01:02:06.180Z,0
2016-10-21T01:03:06.706Z,0
2016-10-21T01:04:06.301Z,0
2016-10-21T01:05:06.531Z,0
2016-10-21T01:06:08.030Z,0
2016-10-21T01:07:07.098Z,0
2016-10-21T01:08:07.328Z,0
2016-10-21T01:09:07.254Z,0
2016-10-21T01:10:06.316Z,0
2016-10-21T01:11:06.624Z,0
2016-10-21T01:12:06.434Z,0
2016-10-21T01:13:07.599Z,0
2016-10-21T01:14:06.720Z,0
2016-10-21T01:15:06.797Z,0
2016-10-21T01:16:07.210Z,0
2016-10-21T01:17:06.746Z,0
2016-10-21T01:18:06.245Z,0
2016-10-21T01:19:06.657Z,0
2016-10-21T01:20:06.899Z,0
2016-10-21T01:21:08.170Z,0
2016-10-21T01:22:07.767Z,0
2016-10-21T01:23:06.382Z,0
2016-10-21T01:24:06.772Z,0
2016-10-21T01:25:06.076Z,0
2016-10-21T01:26:06.799Z,0
2016-10-21T01:27:07.718Z,0
2016-10-21T01:28:07.453Z,0
2016-10-21T01:29:06.367Z,0
2016-10-21T01:30:06.863Z,0
2016-10-21T01:31:08.870Z,0
2016-10-21T01:32:07.213Z,0
2016-10-21T01:33:06.881Z,0
2016-10-21T01:34:07.088Z,0
2016-10-21T01:35:07.898Z,0
2016-10-21T01:36:07.397Z,0
2016-10-21T01:37:06.490Z,0
2016-10-21T01:38:05.756Z,0
2016-10-21T01:39:07.364Z,0
2016-10-21T01:40:06.674Z,0
2016-10-21T01:41:06.767Z,0
2016-10-21T01:42:07.707Z,0
2016-10-21T01:43:07.680Z,0
2016-10-21T01:44:07.389Z,0
2016-10-21T01:45:09.244Z,0
2016-10-21T01:46:07.395Z,0
2016-10-21T01:47:06.722Z,0
2016-10-21T01:48:07.487Z,0
2016-10-21T01:49:07.805Z,0
2016-10-21T01:50:07.879Z,0
2016-10-21T01:51:06.845Z,0
2016-10-21T01:52:08.178Z,0
2016-10-21T01:53:06.661Z,0
2016-10-21T01:54:08.220Z,0
2016-10-21T01:55:08.603Z,0
2016-10-21T01:56:08.267Z,0
2016-10-21T01:57:07.101Z,0
2016-10-21T01:58:07.499Z,0
2016-10-21T01:59:06.753Z,0
2016-10-21T02:00:08.430Z,0
2016-10-21T02:01:07.770Z,0
2016-10-21T02:02:06.758Z,0
2016-10-21T02:03:06.839Z,0
2016-10-21T02:04:07.036Z,0
2016-10-21T02:05:08.066Z,0
2016-10-21T02:06:07.903Z,0
2016-10-21T02:07:08.422Z,0
2016-10-21T02:08:08.871Z,0
2016-10-21T02:09:07.386Z,0
2016-10-21T02:10:07.567Z,0
2016-10-21T02:11:07.760Z,0
2016-10-21T02:12:07.850Z,0
2016-10-21T02:13:08.437Z,0
2016-10-21T02:14:07.455Z,0
2016-10-21T02:15:07.730Z,0
2016-10-21T02:16:08.488Z,0
2016-10-21T02:17:08.683Z,0
2016-10-21T02:18:07.294Z,0
2016-10-21T02:19:08.085Z,0
2016-10-21T02:20:08.359Z,0
2016-10-21T02:21:07.665Z,0
2016-10-21T02:22:08.058Z,0
2016-10-21T02:23:07.240Z,0
2016-10-21T02:24:08.671Z,0
2016-10-21T02:25:08.670Z,0
2016-10-21T02:26:08.298Z,0
2016-10-21T02:27:07.893Z,0
2016-10-21T02:28:08.015Z,0
2016-10-21T02:29:09.219Z,0
2016-10-21T02:30:08.852Z,0
2016-10-21T02:31:08.580Z,0
2016-10-21T02:32:06.799Z,0
2016-10-21T02:33:06.978Z,0
2016-10-21T02:34:08.317Z,0
2016-10-21T02:35:08.533Z,0
2016-10-21T02:36:08.101Z,0
2016-10-21T02:37:08.263Z,0
2016-10-21T02:38:08.307Z,0
2016-10-21T02:39:08.092Z,0
2016-10-21T02:40:07.537Z,0
2016-10-21T02:41:08.788Z,0
2016-10-21T02:42:07.871Z,0
2016-10-21T02:43:08.445Z,0
2016-10-21T02:44:08.435Z,0
2016-10-21T02:45:08.734Z,0
2016-10-21T02:46:08.972Z,0
2016-10-21T02:47:08.366Z,0
2016-10-21T02:48:09.523Z,0
2016-10-21T02:49:08.241Z,0
2016-10-21T02:50:09.828Z,0
2016-10-21T02:51:08.578Z,0
2016-10-21T02:52:08.469Z,0
2016-10-21T02:53:07.978Z,0
2016-10-21T02:54:09.520Z,0
2016-10-21T02:55:09.535Z,0
2016-10-21T02:56:09.322Z,0
2016-10-21T02:57:09.247Z,0
2016-10-21T02:58:08.856Z,0
2016-10-21T02:59:08.467Z,0
2016-10-21T03:00:09.168Z,0
2016-10-21T03:01:08.687Z,0
2016-10-21T03:02:08.469Z,0
2016-10-21T03:03:08.644Z,0
2016-10-21T03:04:08.265Z,0
2016-10-21T03:05:08.824Z,0
2016-10-21T03:06:09.236Z,0
2016-10-21T03:07:08.894Z,0
2016-10-21T03:08:09.555Z,0
2016-10-21T03:09:08.959Z,0
2016-10-21T03:10:09.218Z,0
2016-10-21T03:11:09.474Z,0
2016-10-21T03:12:09.012Z,0
2016-10-21T03:13:08.610Z,0
2016-10-21T03:14:07.935Z,0
2016-10-21T03:15:08.617Z,0
2016-10-21T03:16:09.063Z,0
2016-10-21T03:17:08.109Z,0
2016-10-21T03:18:08.658Z,0
2016-10-21T03:19:10.126Z,0
2016-10-21T03:20:09.377Z,0
2016-10-21T03:21:09.525Z,0
2016-10-21T03:22:08.672Z,0
2016-10-21T03:23:08.311Z,0
2016-10-21T03:24:08.776Z,0
2016-10-21T03:25:09.251Z,0
2016-10-21T03:26:09.047Z,0
2016-10-21T03:27:09.943Z,0
2016-10-21T03:28:09.630Z,0
2016-10-21T03:29:09.340Z,0
2016-10-21T03:30:09.046Z,0
2016-10-21T03:31:09.196Z,0
2016-10-21T03:32:10.380Z,0
2016-10-21T03:33:09.137Z,0
2016-10-21T03:34:09.790Z,0
2016-10-21T03:35:08.271Z,0
2016-10-21T03:36:09.059Z,0
2016-10-21T03:37:09.143Z,0
2016-10-21T03:38:09.873Z,0
2016-10-21T03:39:09.947Z,0
2016-10-21T03:40:09.509Z,0
2016-10-21T03:41:11.530Z,0
2016-10-21T03:42:09.536Z,0
2016-10-21T03:43:08.936Z,0
2016-10-21T03:44:09.548Z,0
2016-10-21T03:45:09.282Z,0
2016-10-21T03:46:09.273Z,0
2016-10-21T03:47:08.730Z,0
2016-10-21T03:48:08.516Z,0
2016-10-21T03:49:08.494Z,0
2016-10-21T03:50:08.988Z,0
2016-10-21T03:51:09.973Z,0
2016-10-21T03:52:10.022Z,0
2016-10-21T03:53:08.875Z,0
2016-10-21T03:54:10.252Z,0
2016-10-21T03:55:09.797Z,0
2016-10-21T03:56:09.724Z,0
2016-10-21T03:57:09.906Z,0
2016-10-21T03:58:11.184Z,0
2016-10-21T03:59:09.058Z,0
2016-10-21T04:00:08.536Z,0
2016-10-21T04:01:08.962Z,0
2016-10-21T04:02:08.674Z,0
2016-10-21T04:03:11.254Z,0
2016-10-21T04:04:09.359Z,0
2016-10-21T04:05:10.234Z,0
2016-10-21T04:06:09.612Z,0
2016-10-21T04:07:10.155Z,0
2016-10-21T04:08:10.010Z,0
2016-10-21T04:09:08.848Z,0
2016-10-21T04:10:11.473Z,0
2016-10-21T04:11:11.241Z,0
2016-10-21T04:12:11.183Z,0
2016-10-21T04:13:09.847Z,0
2016-10-21T04:14:10.661Z,0
2016-10-21T04:15:11.414Z,0
2016-10-21T04:16:09.927Z,0
2016-10-21T04:17:11.147Z,0
2016-10-21T04:18:11.814Z,0
2016-10-21T04:19:11.379Z,0
2016-10-21T04:20:10.390Z,0
2016-10-21T04:21:10.001Z,0
2016-10-21T04:22:11.059Z,0
2016-10-21T04:23:09.788Z,0
2016-10-21T04:24:10.528Z,0
2016-10-21T04:25:11.113Z,0
2016-10-21T04:26:10.051Z,0
2016-10-21T04:27:10.092Z,0
2016-10-21T04:28:09.490Z,0
2016-10-21T04:29:11.345Z,0
2016-10-21T04:30:10.103Z,0
2016-10-21T04:31:11.428Z,0
2016-10-21T04:32:09.860Z,0
2016-10-21T04:33:09.941Z,0
2016-10-21T04:34:10.681Z,0
2016-10-21T04:35:11.079Z,0
2016-10-21T04:36:11.325Z,0
2016-10-21T04:37:09.842Z,0
2016-10-21T04:38:09.981Z,0
2016-10-21T04:39:10.228Z,0
2016-10-21T04:40:10.963Z,0
2016-10-21T04:41:10.494Z,0
2016-10-21T04:42:09.585Z,0
2016-10-21T04:43:09.979Z,0
2016-10-21T04:44:11.345Z,0
2016-10-21T04:45:10.616Z,0
2016-10-21T04:46:11.618Z,0
2016-10-21T04:47:10.861Z,0
2016-10-21T04:48:11.713Z,0
2016-10-21T04:49:12.333Z,0
2016-10-21T04:50:11.249Z,0
2016-10-21T04:51:11.427Z,0
2016-10-21T04:52:10.085Z,0
2016-10-21T04:53:10.388Z,0
2016-10-21T04:54:10.302Z,0
2016-10-21T04:55:12.048Z,0
2016-10-21T04:56:12.567Z,0
2016-10-21T04:57:12.931Z,0
2016-10-21T04:58:09.878Z,0
2016-10-21T04:59:10.216Z,0
2016-10-21T05:00:12.604Z,0
2016-10-21T05:01:09.421Z,0
2016-10-21T05:02:10.706Z,0
2016-10-21T05:03:10.800Z,0
2016-10-21T05:04:10.369Z,0
2016-10-21T05:05:11.723Z,0
2016-10-21T05:06:10.143Z,0
2016-10-21T05:07:11.074Z,0
2016-10-21T05:08:11.690Z,0
2016-10-21T05:09:10.451Z,0
2016-10-21T05:10:10.306Z,0
2016-10-21T05:11:11.094Z,0
2016-10-21T05:12:11.144Z,0
2016-10-21T05:13:11.074Z,0
2016-10-21T05:14:11.475Z,0
2016-10-21T05:15:10.755Z,0
2016-10-21T05:16:11.450Z,0
2016-10-21T05:17:10.191Z,0
2016-10-21T05:18:12.406Z,0
2016-10-21T05:19:11.372Z,0
2016-10-21T05:20:10.835Z,0
2016-10-21T05:21:11.746Z,0
2016-10-21T05:22:11.513Z,0
2016-10-21T05:23:12.097Z,0
2016-10-21T05:24:11.348Z,0
2016-10-21T05:25:10.348Z,0
2016-10-21T05:26:10.695Z,0
2016-10-21T05:27:11.513Z,0
2016-10-21T05:28:11.332Z,0
2016-10-21T05:29:11.522Z,0
2016-10-21T05:30:11.141Z,0
2016-10-21T05:31:12.152Z,0
2016-10-21T05:32:11.643Z,0
2016-10-21T05:33:11.310Z,0
2016-10-21T05:34:09.758Z,0
2016-10-21T05:35:12.345Z,0
2016-10-21T05:36:14.751Z,0
2016-10-21T05:37:10.415Z,0
2016-10-21T05:38:11.737Z,0
2016-10-21T05:39:12.892Z,0
2016-10-21T05:40:11.037Z,0
2016-10-21T05:41:11.605Z,0
2016-10-21T05:42:11.051Z,0
2016-10-21T05:43:11.408Z,0
2016-10-21T05:44:10.955Z,0
2016-10-21T05:45:11.322Z,0
2016-10-21T05:46:11.765Z,0
2016-10-21T05:47:12.604Z,0
2016-10-21T05:48:12.117Z,0
2016-10-21T05:49:12.865Z,0
2016-10-21T05:50:11.234Z,0
2016-10-21T05:51:12.427Z,0
2016-10-21T05:52:10.939Z,0
2016-10-21T05:53:11.745Z,0
2016-10-21T05:54:10.941Z,5
2016-10-21T05:55:11.225Z,5
2016-10-21T05:56:12.229Z,5
2016-10-21T05:57:12.022Z,5
2016-10-21T05:58:11.128Z,10
2016-10-21T05:59:11.308Z,10
2016-10-21T06:00:11.736Z,10
2016-10-21T06:01:11.959Z,10
2016-10-21T06:02:11.699Z,10
2016-10-21T06:03:12.075Z,10
2016-10-21T06:04:11.681Z,10
2016-10-21T06:05:11.416Z,10
2016-10-21T06:06:11.380Z,10
2016-10-21T06:07:11.887Z,15
2016-10-21T06:08:13.600Z,15
2016-10-21T06:09:11.797Z,15
2016-10-21T06:10:11.919Z,20
2016-10-21T06:11:11.015Z,20
2016-10-21T06:12:11.472Z,25
2016-10-21T06:13:13.507Z,25
2016-10-21T06:14:10.821Z,30
2016-10-21T06:15:11.050Z,30
2016-10-21T06:16:11.820Z,30
2016-10-21T06:17:10.935Z,30
2016-10-21T06:18:11.319Z,30
2016-10-21T06:19:11.147Z,30
2016-10-21T06:20:12.202Z,30
2016-10-21T06:21:12.118Z,25
2016-10-21T06:22:11.194Z,25
2016-10-21T06:23:11.480Z,25
2016-10-21T06:24:11.779Z,25
2016-10-21T06:25:11.191Z,30
2016-10-21T06:26:11.677Z,30
2016-10-21T06:27:12.322Z,35
2016-10-21T06:28:11.820Z,35
2016-10-21T06:29:12.276Z,40
2016-10-21T06:30:12.791Z,45
2016-10-21T06:31:12.125Z,45
2016-10-21T06:32:11.349Z,50
2016-10-21T06:33:11.168Z,55
2016-10-21T06:34:13.361Z,55
2016-10-21T06:35:13.528Z,60
2016-10-21T06:36:11.957Z,55
2016-10-21T06:37:11.883Z,50
2016-10-21T06:38:11.293Z,50
2016-10-21T06:39:12.006Z,50
2016-10-21T06:40:12.189Z,55
2016-10-21T06:41:13.676Z,65
2016-10-21T06:42:11.243Z,60
2016-10-21T06:43:12.844Z,65
2016-10-21T06:44:12.080Z,65
2016-10-21T06:45:11.897Z,70
2016-10-21T06:46:12.259Z,75
2016-10-21T06:47:11.476Z,85
2016-10-21T06:48:12.247Z,95
2016-10-21T06:49:12.040Z,110
2016-10-21T06:50:11.697Z,130
2016-10-21T06:51:12.364Z,145
2016-10-21T06:52:12.056Z,150
2016-10-21T06:53:12.531Z,150
2016-10-21T06:54:12.391Z,145
2016-10-21T06:55:11.720Z,145
2016-10-21T06:56:12.889Z,160
2016-10-21T06:57:12.562Z,170
2016-10-21T06:58:11.935Z,170
2016-10-21T06:59:12.268Z,155
2016-10-21T07:00:12.412Z,150
2016-10-21T07:01:11.752Z,155
2016-10-21T07:02:12.103Z,160
2016-10-21T07:03:11.770Z,165
2016-10-21T07:04:11.436Z,175
2016-10-21T07:05:13.329Z,180
2016-10-21T07:06:12.824Z,175
2016-10-21T07:07:11.963Z,170
2016-10-21T07:08:12.467Z,165
2016-10-21T07:09:11.474Z,160
2016-10-21T07:10:12.769Z,155
2016-10-21T07:11:12.537Z,160
2016-10-21T07:12:12.017Z,150
2016-10-21T07:13:13.412Z,135
2016-10-21T07:14:12.005Z,120
2016-10-21T07:15:11.988Z,105
2016-10-21T07:16:10.455Z,95
2016-10-21T07:17:11.670Z,85
2016-10-21T07:18:11.646Z,80
2016-10-21T07:19:11.909Z,80
2016-10-21T07:20:12.328Z,80
2016-10-21T07:21:12.133Z,90
2016-10-21T07:22:12.488Z,95
2016-10-21T07:23:11.971Z,105
2016-10-21T07:24:12.192Z,115
2016-10-21T07:25:12.887Z,120
2016-10-21T07:26:13.476Z,125
2016-10-21T07:27:12.762Z,135
2016-10-21T07:28:12.504Z,145
2016-10-21T07:29:13.661Z,155
2016-10-21T07:30:13.087Z,155
2016-10-21T07:31:13.465Z,170
2016-10-21T07:32:12.553Z,195
2016-10-21T07:33:13.116Z,215
2016-10-21T07:34:13.116Z,205
2016-10-21T07:35:12.193Z,185
2016-10-21T07:36:12.768Z,185
2016-10-21T07:37:12.370Z,190
2016-10-21T07:38:12.502Z,190
2016-10-21T07:39:12.335Z,190
2016-10-21T07:40:12.615Z,205
2016-10-21T07:41:12.877Z,195
2016-10-21T07:42:12.758Z,205
2016-10-21T07:43:12.939Z,200
2016-10-21T07:44:12.312Z,195
2016-10-21T07:45:12.799Z,195
2016-10-21T07:46:12.296Z,185
2016-10-21T07:47:12.383Z,170
2016-10-21T07:48:12.856Z,170
2016-10-21T07:49:13.749Z,155
2016-10-21T07:50:12.632Z,125
2016-10-21T07:51:14.575Z,105
2016-10-21T07:52:13.011Z,95
2016-10-21T07:53:13.985Z,95
2016-10-21T07:54:13.501Z,100
2016-10-21T07:55:13.060Z,105
2016-10-21T07:56:13.955Z,120
2016-10-21T07:57:11.779Z,125
2016-10-21T07:58:13.344Z,130
2016-10-21T07:59:13.356Z,140
2016-10-21T08:00:12.914Z,150
2016-10-21T08:01:13.193Z,160
2016-10-21T08:02:13.985Z,150
2016-10-21T08:03:12.700Z,150
2016-10-21T08:04:13.475Z,130
2016-10-21T08:05:13.449Z,120
2016-10-21T08:06:14.391Z,135
2016-10-21T08:07:14.272Z,140
2016-10-21T08:08:13.062Z,125
2016-10-21T08:09:14.460Z,125
2016-10-21T08:10:12.580Z,125
2016-10-21T08:11:12.719Z,135
2016-10-21T08:12:14.663Z,150
2016-10-21T08:13:13.629Z,130
2016-10-21T08:14:13.541Z,115
2016-10-21T08:15:13.955Z,110
2016-10-21T08:16:14.260Z,115
2016-10-21T08:17:14.519Z,115
2016-10-21T08:18:14.122Z,115
2016-10-21T08:19:13.918Z,115
2016-10-21T08:20:13.703Z,120
2016-10-21T08:21:13.461Z,120
2016-10-21T08:22:13.354Z,120
2016-10-21T08:23:13.695Z,135
2016-10-21T08:24:13.765Z,155
2016-10-21T08:25:13.658Z,140
2016-10-21T08:26:13.738Z,145
2016-10-21T08:27:14.621Z,160
2016-10-21T08:28:12.875Z,155
2016-10-21T08:29:13.598Z,150
2016-10-21T08:30:14.126Z,140
2016-10-21T08:31:15.212Z,130
2016-10-21T08:32:13.606Z,120
2016-10-21T08:33:15.293Z,110
2016-10-21T08:34:13.835Z,100
2016-10-21T08:35:14.323Z,90
2016-10-21T08:36:12.796Z,80
2016-10-21T08:37:13.070Z,85
2016-10-21T08:38:14.401Z,90
2016-10-21T08:39:13.939Z,90
2016-10-21T08:40:13.571Z,95
2016-10-21T08:41:13.380Z,95
2016-10-21T08:42:14.154Z,105
2016-10-21T08:43:14.024Z,110
2016-10-21T08:44:14.758Z,105
2016-10-21T08:45:15.072Z,120
2016-10-21T08:46:13.557Z,130
2016-10-21T08:47:14.189Z,140
2016-10-21T08:48:14.215Z,140
2016-10-21T08:49:15.086Z,150
2016-10-21T08:50:15.331Z,145
2016-10-21T08:51:14.520Z,150
2016-10-21T08:52:15.235Z,165
2016-10-21T08:53:14.273Z,185
2016-10-21T08:54:14.131Z,215
2016-10-21T08:55:15.354Z,235
2016-10-21T08:56:15.150Z,250
2016-10-21T08:57:14.065Z,230
2016-10-21T08:58:14.473Z,200
2016-10-21T08:59:13.687Z,175
2016-10-21T09:00:15.056Z,160
2016-10-21T09:01:14.967Z,155
2016-10-21T09:02:14.351Z,155
2016-10-21T09:03:13.823Z,160
2016-10-21T09:04:15.819Z,155
2016-10-21T09:05:14.764Z,160
2016-10-21T09:06:15.172Z,165
2016-10-21T09:07:14.331Z,150
2016-10-21T09:08:15.079Z,145
2016-10-21T09:09:14.483Z,160
2016-10-21T09:10:14.811Z,170
2016-10-21T09:11:14.734Z,185
2016-10-21T09:12:14.378Z,200
2016-10-21T09:13:14.426Z,230
2016-10-21T09:14:14.698Z,250
2016-10-21T09:15:14.661Z,255
2016-10-21T09:16:14.101Z,255
2016-10-21T09:17:13.697Z,275
2016-10-21T09:18:14.397Z,300
2016-10-21T09:19:14.604Z,280
2016-10-21T09:20:13.755Z,250
2016-10-21T09:21:17.066Z,230
2016-10-21T09:22:14.785Z,240
2016-10-21T09:23:14.175Z,235
2016-10-21T09:24:14.604Z,230
2016-10-21T09:25:14.034Z,240
2016-10-21T09:26:14.600Z,240
2016-10-21T09:27:14.766Z,215
2016-10-21T09:28:14.318Z,230
2016-10-21T09:29:14.301Z,210
2016-10-21T09:30:15.299Z,185
2016-10-21T09:31:13.708Z,180
2016-10-21T09:32:14.163Z,175
2016-10-21T09:33:14.942Z,185
2016-10-21T09:34:15.139Z,190
2016-10-21T09:35:14.128Z,200
2016-10-21T09:36:14.500Z,225
2016-10-21T09:37:14.628Z,250
2016-10-21T09:38:15.455Z,275
2016-10-21T09:39:15.216Z,310
2016-10-21T09:40:14.636Z,330
2016-10-21T09:41:14.445Z,335
2016-10-21T09:42:13.995Z,325
2016-10-21T09:43:15.283Z,320
2016-10-21T09:44:13.834Z,310
2016-10-21T09:45:15.424Z,305
2016-10-21T09:46:13.934Z,340
2016-10-21T09:47:14.835Z,380
2016-10-21T09:48:14.616Z,390
2016-10-21T09:49:15.586Z,330
2016-10-21T09:50:15.119Z,285
2016-10-21T09:51:15.021Z,250
2016-10-21T09:52:14.646Z,200
2016-10-21T09:53:14.912Z,185
2016-10-21T09:54:14.500Z,190
2016-10-21T09:55:14.378Z,185
2016-10-21T09:56:14.911Z,180
2016-10-21T09:57:14.180Z,175
2016-10-21T09:58:16.333Z,170
2016-10-21T09:59:14.224Z,185
2016-10-21T10:00:14.435Z,180
2016-10-21T10:01:14.571Z,180
2016-10-21T10:02:14.557Z,170
2016-10-21T10:03:15.198Z,170
2016-10-21T10:04:15.022Z,180
2016-10-21T10:05:15.510Z,210
2016-10-21T10:06:15.038Z,235
2016-10-21T10:07:14.734Z,265
2016-10-21T10:08:16.830Z,280
2016-10-21T10:09:14.113Z,300
2016-10-21T10:10:17.108Z,315
2016-10-21T10:11:14.410Z,320
2016-10-21T10:12:15.277Z,295
2016-10-21T10:13:16.282Z,280
2016-10-21T10:14:15.457Z,260
2016-10-21T10:15:15.255Z,250
2016-10-21T10:16:16.533Z,230
2016-10-21T10:17:16.312Z,195
2016-10-21T10:18:16.497Z,190
2016-10-21T10:19:15.310Z,200
2016-10-21T10:20:16.253Z,215
2016-10-21T10:21:14.835Z,230
2016-10-21T10:22:15.627Z,265
2016-10-21T10:23:15.030Z,290
2016-10-21T10:24:15.375Z,305
2016-10-21T10:25:15.751Z,320
2016-10-21T10:26:15.684Z,330
2016-10-21T10:27:16.377Z,335
2016-10-21T10:28:17.072Z,340
2016-10-21T10:29:16.361Z,375
2016-10-21T10:30:15.140Z,405
2016-10-21T10:31:15.334Z,430
2016-10-21T10:32:15.996Z,425
2016-10-21T10:33:16.288Z,415
2016-10-21T10:34:14.991Z,435
2016-10-21T10:35:14.543Z,450
2016-10-21T10:36:15.590Z,460
2016-10-21T10:37:15.794Z,435
2016-10-21T10:38:15.951Z,370
2016-10-21T10:39:16.016Z,330
2016-10-21T10:40:16.727Z,295
2016-10-21T10:41:16.233Z,305
2016-10-21T10:42:16.064Z,335
2016-10-21T10:43:15.567Z,325
2016-10-21T10:44:15.321Z,320
2016-10-21T10:45:15.252Z,325
2016-10-21T10:46:16.546Z,335
2016-10-21T10:47:15.804Z,350
2016-10-21T10:48:15.789Z,360
2016-10-21T10:49:15.859Z,360
2016-10-21T10:50:15.817Z,360
2016-10-21T10:51:15.277Z,350
2016-10-21T10:52:15.760Z,365
2016-10-21T10:53:16.087Z,365
2016-10-21T10:54:15.199Z,335
2016-10-21T10:55:16.215Z,280
2016-10-21T10:56:15.393Z,255
2016-10-21T10:57:16.775Z,295
2016-10-21T10:58:16.043Z,340
2016-10-21T10:59:15.944Z,375
2016-10-21T11:00:16.492Z,395
2016-10-21T11:01:15.537Z,405
2016-10-21T11:02:16.885Z,395
2016-10-21T11:03:16.149Z,380
2016-10-21T11:04:15.851Z,355
2016-10-21T11:05:16.105Z,345
2016-10-21T11:06:15.809Z,370
2016-10-21T11:07:16.081Z,380
2016-10-21T11:08:16.667Z,360
2016-10-21T11:09:15.513Z,340
2016-10-21T11:10:16.165Z,325
2016-10-21T11:11:15.401Z,310
2016-10-21T11:12:16.159Z,300
2016-10-21T11:13:16.605Z,285
2016-10-21T11:14:16.404Z,290
2016-10-21T11:15:16.656Z,350
2016-10-21T11:16:16.828Z,375
2016-10-21T11:17:16.119Z,380
2016-10-21T11:18:15.789Z,390
2016-10-21T11:19:16.193Z,385
2016-10-21T11:20:17.385Z,405
2016-10-21T11:21:15.917Z,475
2016-10-21T11:22:16.298Z,515
2016-10-21T11:23:15.868Z,505
2016-10-21T11:24:15.675Z,495
2016-10-21T11:25:17.467Z,490
2016-10-21T11:26:16.251Z,530
2016-10-21T11:27:16.133Z,515
2016-10-21T11:28:18.383Z,425
2016-10-21T11:29:16.793Z,420
2016-10-21T11:30:16.812Z,500
2016-10-21T11:31:15.877Z,575
2016-10-21T11:32:16.269Z,605
2016-10-21T11:33:16.764Z,580
2016-10-21T11:37:00.854Z,770
2016-10-21T11:37:45.264Z,880
2016-10-21T11:38:45.277Z,840
2016-10-21T11:39:45.002Z,875
2016-10-21T11:40:45.464Z,1040
2016-10-21T11:41:45.360Z,1060
2016-10-21T11:42:45.611Z,1050
2016-10-21T11:43:45.585Z,1055
2016-10-21T11:44:45.874Z,920
2016-10-21T11:45:46.772Z,865
2016-10-21T11:46:45.993Z,930
2016-10-21T11:47:45.261Z,855
2016-10-21T11:48:45.179Z,755
2016-10-21T11:49:46.296Z,565
2016-10-21T11:50:45.494Z,485
2016-10-21T11:51:45.363Z,415
2016-10-21T11:52:45.743Z,360
2016-10-21T11:53:45.622Z,325
2016-10-21T11:54:45.635Z,345
2016-10-21T11:55:46.370Z,440
2016-10-21T11:56:46.755Z,505
2016-10-21T11:57:44.919Z,510
2016-10-21T11:58:45.668Z,540
2016-10-21T11:59:46.361Z,490
2016-10-21T12:00:45.846Z,440
2016-10-21T12:01:46.060Z,470
2016-10-21T12:02:45.526Z,445
2016-10-21T12:03:45.763Z,415
2016-10-21T12:04:47.290Z,410
2016-10-21T12:05:46.584Z,405
2016-10-21T12:06:46.257Z,405
2016-10-21T12:07:46.344Z,400
2016-10-21T12:08:47.004Z,405
2016-10-21T12:09:45.499Z,405
2016-10-21T12:10:45.611Z,400
2016-10-21T12:11:45.339Z,385
2016-10-21T12:12:45.637Z,395
2016-10-21T12:13:46.910Z,430
2016-10-21T12:14:46.792Z,460
2016-10-21T12:15:45.689Z,495
2016-10-21T12:16:47.205Z,525
2016-10-21T12:17:45.774Z,545
2016-10-21T12:18:45.508Z,550
2016-10-21T12:19:46.001Z,525
2016-10-21T12:20:45.578Z,575
2016-10-21T12:21:46.554Z,630
2016-10-21T12:22:46.520Z,620
2016-10-21T12:23:45.733Z,605
2016-10-21T12:24:46.758Z,585
2016-10-21T12:25:46.505Z,535
2016-10-21T12:26:46.560Z,525
2016-10-21T12:27:45.571Z,495
2016-10-21T12:28:46.604Z,475
2016-10-21T12:29:46.118Z,470
2016-10-21T12:30:48.309Z,455
2016-10-21T12:31:47.681Z,450
2016-10-21T12:32:45.980Z,440
2016-10-21T12:33:47.298Z,420
2016-10-21T12:34:45.503Z,415
2016-10-21T12:35:45.688Z,425
2016-10-21T12:36:46.132Z,440
2016-10-21T12:37:48.810Z,435
2016-10-21T12:38:46.886Z,415
2016-10-21T12:39:46.848Z,395
2016-10-21T12:40:46.348Z,380
2016-10-21T12:41:46.372Z,365
2016-10-21T12:42:46.905Z,340
2016-10-21T12:43:46.762Z,320
2016-10-21T12:44:46.441Z,315
2016-10-21T12:45:46.163Z,300
2016-10-21T12:46:46.472Z,290
2016-10-21T12:47:46.856Z,285
2016-10-21T12:48:46.302Z,280
2016-10-21T12:49:47.079Z,270
2016-10-21T12:50:45.580Z,265
2016-10-21T12:51:46.674Z,255
2016-10-21T12:52:46.835Z,245
2016-10-21T12:53:46.589Z,235
2016-10-21T12:54:47.023Z,245
2016-10-21T12:55:46.768Z,250
2016-10-21T12:56:47.151Z,225
2016-10-21T12:57:47.416Z,200
2016-10-21T12:58:46.359Z,195
2016-10-21T12:59:48.140Z,200
2016-10-21T13:00:48.180Z,195
2016-10-21T13:01:47.291Z,175
2016-10-21T13:02:47.718Z,155
2016-10-21T13:03:48.093Z,145
2016-10-21T13:04:45.729Z,135
2016-10-21T13:05:46.365Z,125
2016-10-21T13:06:46.187Z,120
2016-10-21T13:07:46.623Z,110
2016-10-21T13:08:47.813Z,100
2016-10-21T13:09:47.260Z,95
2016-10-21T13:10:46.605Z,105
2016-10-21T13:11:46.701Z,125
2016-10-21T13:12:46.673Z,135
2016-10-21T13:13:47.637Z,135
2016-10-21T13:14:46.172Z,135
2016-10-21T13:15:46.750Z,125
2016-10-21T13:16:46.971Z,130
2016-10-21T13:17:48.211Z,135
2016-10-21T13:18:47.621Z,135
2016-10-21T13:19:46.576Z,135
2016-10-21T13:20:47.203Z,140
2016-10-21T13:21:46.190Z,145
2016-10-21T13:22:46.951Z,155
2016-10-21T13:23:46.723Z,165
2016-10-21T13:24:47.824Z,175
2016-10-21T13:25:47.053Z,190
2016-10-21T13:26:47.367Z,195
2016-10-21T13:27:47.046Z,195
2016-10-21T13:28:48.203Z,185
2016-10-21T13:29:47.932Z,185
2016-10-21T13:30:46.594Z,185
2016-10-21T13:31:46.446Z,185
2016-10-21T13:32:48.062Z,190
2016-10-21T13:33:48.462Z,195
2016-10-21T13:34:46.867Z,210
2016-10-21T13:35:46.852Z,225
2016-10-21T13:36:46.629Z,230
2016-10-21T13:37:48.216Z,225
2016-10-21T13:38:47.907Z,240
2016-10-21T13:39:46.932Z,245
2016-10-21T13:40:47.136Z,235
2016-10-21T13:41:48.440Z,225
2016-10-21T13:42:47.113Z,220
2016-10-21T13:43:47.902Z,210
2016-10-21T13:44:47.339Z,200
2016-10-21T13:45:48.292Z,190
2016-10-21T13:46:48.304Z,190
2016-10-21T13:47:48.244Z,205
2016-10-21T13:48:48.500Z,195
2016-10-21T13:49:48.219Z,185
2016-10-21T13:50:46.763Z,190
2016-10-21T13:51:47.888Z,205
2016-10-21T13:52:47.211Z,205
2016-10-21T13:53:47.753Z,195
2016-10-21T13:54:47.898Z,190
2016-10-21T13:55:47.949Z,180
2016-10-21T13:56:48.207Z,170
2016-10-21T13:57:48.104Z,155
2016-10-21T13:58:48.137Z,145
2016-10-21T13:59:48.649Z,145
2016-10-21T14:00:48.630Z,150
2016-10-21T14:01:47.201Z,165
2016-10-21T14:02:48.119Z,165
2016-10-21T14:03:47.918Z,160
2016-10-21T14:04:48.266Z,145
2016-10-21T14:05:49.015Z,120
2016-10-21T14:06:47.709Z,110
2016-10-21T14:07:48.503Z,110
2016-10-21T14:08:48.915Z,115
2016-10-21T14:09:47.969Z,110
2016-10-21T14:10:48.527Z,105
2016-10-21T14:11:47.025Z,105
2016-10-21T14:12:48.920Z,100
2016-10-21T14:13:49.288Z,100
2016-10-21T14:14:49.388Z,105